TimeCDT,TemperatureF,Dew PointF,Humidity,Sea Level PressureIn,VisibilityMPH,Wind Direction,Wind SpeedMPH,Gust SpeedMPH,PrecipitationIn,Events,Conditions,WindDirDegrees,DateUTC
12:15 AM,64.4,57.2,77,29.82,10.0,NW,6.9,-,N/A,,Mostly Cloudy,320,2013-08-21 05:15:00
12:35 AM,64.4,59.0,83,29.84,10.0,NW,6.9,-,N/A,,Overcast,320,2013-08-21 05:35:00
12:55 AM,64.4,59.0,83,29.85,10.0,NW,4.6,-,N/A,,Overcast,320,2013-08-21 05:55:00
1:15 AM,64.4,59.0,83,29.86,10.0,NW,6.9,-,N/A,,Overcast,320,2013-08-21 06:15:00
1:35 AM,64.4,59.0,83,29.87,10.0,NW,3.5,-,N/A,,Overcast,310,2013-08-21 06:35:00
1:55 AM,64.4,59.0,83,29.88,10.0,NW,4.6,-,N/A,,Overcast,310,2013-08-21 06:55:00
2:15 AM,64.4,60.8,88,29.88,10.0,NW,5.8,-,N/A,,Overcast,310,2013-08-21 07:15:00
2:35 AM,62.6,62.6,100,29.88,10.0,NW,6.9,-,N/A,,Mostly Cloudy,320,2013-08-21 07:35:00
2:55 AM,62.6,62.6,100,29.88,10.0,NW,4.6,-,N/A,,Scattered Clouds,310,2013-08-21 07:55:00
3:15 AM,62.6,62.6,100,29.88,10.0,NW,3.5,-,N/A,,Partly Cloudy,310,2013-08-21 08:15:00
3:35 AM,62.6,60.8,94,29.88,10.0,Calm,Calm,-,N/A,,Partly Cloudy,0,2013-08-21 08:35:00
3:55 AM,59.0,59.0,100,29.89,10.0,West,3.5,-,N/A,,Partly Cloudy,280,2013-08-21 08:55:00
4:15 AM,59.0,59.0,100,29.88,10.0,West,3.5,-,N/A,,Clear,270,2013-08-21 09:15:00
4:35 AM,59.0,59.0,100,29.89,10.0,West,5.8,-,N/A,,Clear,270,2013-08-21 09:35:00
4:55 AM,59.0,59.0,100,29.88,10.0,West,3.5,-,N/A,,Clear,270,2013-08-21 09:55:00
5:15 AM,59.0,59.0,100,29.88,10.0,Calm,Calm,-,N/A,,Clear,0,2013-08-21 10:15:00
5:35 AM,59.0,57.2,94,29.90,10.0,WNW,6.9,-,N/A,,Clear,300,2013-08-21 10:35:00
5:55 AM,59.0,55.4,88,29.91,10.0,NW,8.1,-,N/A,,Clear,310,2013-08-21 10:55:00
6:15 AM,59.0,53.6,82,29.92,10.0,NW,6.9,-,N/A,,Clear,310,2013-08-21 11:15:00
6:35 AM,59.0,51.8,77,29.93,10.0,NW,6.9,-,N/A,,Clear,310,2013-08-21 11:35:00
6:55 AM,57.2,51.8,82,29.94,10.0,NW,5.8,-,N/A,,Clear,310,2013-08-21 11:55:00
7:15 AM,59.0,50.0,72,29.96,10.0,NW,6.9,-,N/A,Rain,Light Rain,310,2013-08-21 12:15:00
7:35 AM,59.0,50.0,72,29.97,10.0,WNW,6.9,-,N/A,,Clear,300,2013-08-21 12:35:00
7:55 AM,60.8,50.0,68,29.98,10.0,WNW,5.8,-,N/A,,Clear,300,2013-08-21 12:55:00
8:15 AM,62.6,50.0,63,29.98,10.0,NW,5.8,-,N/A,,Clear,310,2013-08-21 13:15:00
8:35 AM,64.4,48.2,56,29.99,10.0,NW,5.8,-,N/A,,Clear,310,2013-08-21 13:35:00
8:55 AM,64.4,48.2,56,30.00,10.0,NW,5.8,-,N/A,,Clear,310,2013-08-21 13:55:00
9:15 AM,66.2,46.4,49,30.01,10.0,NW,10.4,-,N/A,,Clear,320,2013-08-21 14:15:00
9:35 AM,68.0,46.4,46,30.02,10.0,NW,10.4,16.1,N/A,,Mostly Cloudy,310,2013-08-21 14:35:00
9:55 AM,68.0,46.4,46,30.03,10.0,NW,10.4,-,N/A,,Mostly Cloudy,320,2013-08-21 14:55:00
10:15 AM,71.6,46.4,41,30.03,10.0,NW,8.1,-,N/A,,Scattered Clouds,320,2013-08-21 15:15:00
10:35 AM,69.8,46.4,43,30.03,10.0,NW,5.8,-,N/A,,Scattered Clouds,310,2013-08-21 15:35:00
10:55 AM,69.8,48.2,46,30.02,10.0,NW,8.1,-,N/A,,Scattered Clouds,320,2013-08-21 15:55:00
11:15 AM,71.6,46.4,41,30.02,10.0,NNW,12.7,-,N/A,,Scattered Clouds,340,2013-08-21 16:15:00
11:35 AM,71.6,46.4,41,30.03,10.0,NNW,12.7,18.4,N/A,,Mostly Cloudy,330,2013-08-21 16:35:00
11:55 AM,71.6,46.4,41,30.04,10.0,NNW,12.7,23.0,N/A,,Partly Cloudy,340,2013-08-21 16:55:00
12:15 PM,71.6,48.2,43,30.04,10.0,NW,16.1,-,N/A,,Clear,320,2013-08-21 17:15:00
12:35 PM,71.6,50.0,46,30.04,9.0,NW,12.7,19.6,N/A,,Clear,310,2013-08-21 17:35:00
12:55 PM,73.4,50.0,44,30.03,10.0,NNW,10.4,-,N/A,,Clear,330,2013-08-21 17:55:00
1:15 PM,73.4,48.2,41,30.03,10.0,NW,10.4,19.6,N/A,,Clear,310,2013-08-21 18:15:00
1:35 PM,75.2,44.6,34,30.03,10.0,NW,16.1,-,N/A,,Clear,310,2013-08-21 18:35:00
1:55 PM,75.2,46.4,36,30.03,10.0,NNW,16.1,20.7,N/A,,Clear,330,2013-08-21 18:55:00
2:15 PM,75.2,46.4,36,30.03,10.0,NW,10.4,19.6,N/A,,Clear,310,2013-08-21 19:15:00
2:35 PM,75.2,46.4,36,30.03,10.0,WNW,11.5,19.6,N/A,,Clear,300,2013-08-21 19:35:00
2:55 PM,77.0,46.4,34,30.04,10.0,WNW,11.5,20.7,N/A,,Clear,300,2013-08-21 19:55:00
3:15 PM,77.0,44.6,32,30.04,10.0,WNW,13.8,18.4,N/A,,Clear,300,2013-08-21 20:15:00
3:35 PM,75.2,42.8,31,30.04,10.0,NW,13.8,19.6,N/A,,Clear,320,2013-08-21 20:35:00
3:55 PM,77.0,41.0,28,30.04,10.0,WNW,12.7,24.2,N/A,,Clear,300,2013-08-21 20:55:00
4:15 PM,77.0,44.6,32,30.04,10.0,WNW,10.4,17.3,N/A,,Clear,290,2013-08-21 21:15:00
4:35 PM,75.2,44.6,34,30.04,10.0,WNW,12.7,19.6,N/A,,Clear,300,2013-08-21 21:35:00
4:55 PM,75.2,46.4,36,30.04,10.0,NW,12.7,17.3,N/A,,Clear,320,2013-08-21 21:55:00
5:15 PM,75.2,46.4,36,30.04,10.0,NNW,12.7,17.3,N/A,,Clear,330,2013-08-21 22:15:00
5:35 PM,77.0,48.2,36,30.04,10.0,WNW,11.5,16.1,N/A,,Partly Cloudy,300,2013-08-21 22:35:00
5:55 PM,75.2,44.6,34,30.05,10.0,NW,10.4,-,N/A,,Partly Cloudy,310,2013-08-21 22:55:00
6:15 PM,73.4,42.8,33,30.04,10.0,WNW,11.5,17.3,N/A,,Partly Cloudy,300,2013-08-21 23:15:00
6:35 PM,73.4,44.6,36,30.04,10.0,NW,10.4,-,N/A,,Partly Cloudy,310,2013-08-21 23:35:00
6:55 PM,73.4,44.6,36,30.05,10.0,NW,10.4,-,N/A,,Clear,310,2013-08-21 23:55:00
7:15 PM,73.4,46.4,38,30.05,10.0,NW,4.6,-,N/A,,Clear,310,2013-08-22 00:15:00
7:35 PM,71.6,46.4,41,30.05,10.0,WNW,5.8,-,N/A,,Clear,300,2013-08-22 00:35:00
7:55 PM,71.6,46.4,41,30.06,10.0,WNW,5.8,-,N/A,,Clear,300,2013-08-22 00:55:00
8:15 PM,69.8,46.4,43,30.07,10.0,WNW,5.8,-,N/A,,Clear,300,2013-08-22 01:15:00
8:35 PM,66.2,48.2,52,30.07,10.0,WNW,6.9,-,N/A,,Clear,300,2013-08-22 01:35:00
8:55 PM,66.2,46.4,49,30.08,10.0,WNW,6.9,-,N/A,,Clear,290,2013-08-22 01:55:00
9:15 PM,66.2,46.4,49,30.09,10.0,West,5.8,-,N/A,,Clear,280,2013-08-22 02:15:00
9:35 PM,62.6,46.4,55,30.10,10.0,NNW,4.6,-,N/A,,Clear,330,2013-08-22 02:35:00
9:55 PM,60.8,48.2,63,30.10,10.0,NW,3.5,-,N/A,,Clear,310,2013-08-22 02:55:00
10:15 PM,62.6,48.2,59,30.10,10.0,West,4.6,-,N/A,,Clear,270,2013-08-22 03:15:00
10:35 PM,62.6,48.2,59,30.11,10.0,West,4.6,-,N/A,,Clear,280,2013-08-22 03:35:00
10:55 PM,62.6,48.2,59,30.12,10.0,WNW,6.9,-,N/A,,Clear,300,2013-08-22 03:55:00
11:15 PM,60.8,48.2,63,30.12,10.0,WNW,6.9,-,N/A,,Clear,300,2013-08-22 04:15:00
11:35 PM,60.8,46.4,59,30.13,10.0,WNW,5.8,-,N/A,,Clear,290,2013-08-22 04:35:00
11:55 PM,60.8,46.4,59,30.13,10.0,NW,6.9,-,N/A,,Clear,310,2013-08-22 04:55:00